Time;durP1;ratioP1;P1;durP2;ratioP2;P2;SDS_P1;SDS_P2;PMS_P1;PMS_P2;Temp;Humidity;BMP_temperature;BMP_pressure;BME280_temperature;BME280_humidity;BME280_pressure;Samples;Min_cycle;Max_cycle;Signal;HPM_P1;HPM_P2
2021/07/15 00:00:42;;;;;;;16.80;9.90;;;;;;;21.76;60.91;101482.16;5075946;28;20048;-84
2021/07/15 00:03:10;;;;;;;20.75;9.93;;;;;;;21.76;60.83;101492.63;5093174;28;20020;-85
2021/07/15 00:05:37;;;;;;;14.50;9.10;;;;;;;21.80;60.73;101484.69;5093957;28;20089;-85
2021/07/15 00:08:06;;;;;;;15.65;9.35;;;;;;;21.80;60.89;101489.94;5092888;28;20024;-85
2021/07/15 00:10:57;;;;;;;19.52;10.23;;;;;;;21.78;60.75;101488.22;5092694;28;20024;-85
2021/07/15 00:13:23;;;;;;;17.17;9.48;;;;;;;21.77;60.89;101499.63;5092666;28;20031;-85
2021/07/15 00:15:51;;;;;;;14.00;9.18;;;;;;;21.78;60.99;101505.72;5092475;28;20028;-85
2021/07/15 00:18:21;;;;;;;16.02;9.35;;;;;;;21.78;60.72;101496.09;5092636;28;20020;-85
2021/07/15 00:20:48;;;;;;;16.52;9.25;;;;;;;21.78;60.95;101495.22;5092943;28;20039;-84
2021/07/15 00:23:14;;;;;;;15.52;9.73;;;;;;;21.80;60.75;101496.06;5076311;28;20118;-84
2021/07/15 00:25:41;;;;;;;16.83;10.30;;;;;;;21.78;60.85;101497.84;5076505;28;20024;-85
2021/07/15 00:28:07;;;;;;;15.35;9.13;;;;;;;21.76;60.93;101499.63;5076636;28;20105;-85
2021/07/15 00:30:33;;;;;;;15.50;9.77;;;;;;;21.73;60.98;101495.31;5094001;28;20024;-84
2021/07/15 00:32:59;;;;;;;18.83;9.13;;;;;;;21.74;60.99;101506.66;5094399;28;20058;-84
2021/07/15 00:35:24;;;;;;;12.82;9.13;;;;;;;21.77;61.09;101501.34;5094199;28;20032;-85
2021/07/15 00:37:50;;;;;;;17.30;9.95;;;;;;;21.76;60.81;101497.88;5059377;28;20028;-85
2021/07/15 00:40:17;;;;;;;15.50;9.50;;;;;;;21.77;60.86;101501.34;5076207;28;20024;-84
2021/07/15 00:42:43;;;;;;;15.95;9.63;;;;;;;21.76;60.66;101497.88;5093041;28;20052;-84
2021/07/15 00:45:10;;;;;;;15.95;9.15;;;;;;;21.77;60.78;101494.38;5092483;28;20028;-84
2021/07/15 00:47:36;;;;;;;17.15;9.50;;;;;;;21.75;60.90;101500.50;5075790;28;20086;-84
2021/07/15 00:50:05;;;;;;;16.98;9.38;;;;;;;21.76;60.75;101513.59;5092648;28;20031;-85
2021/07/15 00:52:31;;;;;;;15.85;9.93;;;;;;;21.75;60.63;101511.88;5092409;28;20021;-85
2021/07/15 00:54:57;;;;;;;14.98;9.90;;;;;;;21.75;60.64;101500.50;5075628;28;20039;-84
2021/07/15 00:57:23;;;;;;;16.58;9.65;;;;;;;21.73;60.89;101504.91;5092950;28;20107;-84
2021/07/15 00:59:50;;;;;;;15.18;9.65;;;;;;;21.74;60.68;101502.25;5077282;28;20073;-86
2021/07/15 01:02:16;;;;;;;20.27;10.20;;;;;;;21.76;60.81;101497.00;5092592;28;20115;-84
2021/07/15 01:04:41;;;;;;;18.08;10.15;;;;;;;21.73;60.62;101490.06;5092531;28;20051;-84
2021/07/15 01:07:07;;;;;;;16.42;10.27;;;;;;;21.73;60.80;101503.16;5092760;28;20131;-84
2021/07/15 01:09:32;;;;;;;15.30;9.07;;;;;;;21.74;61.03;101494.41;5093170;28;20377;-85
2021/07/15 01:12:07;;;;;;;16.60;9.85;;;;;;;21.72;61.08;101497.94;5077291;28;20444;-84
2021/07/15 01:14:39;;;;;;;15.85;10.25;;;;;;;21.72;60.94;101504.03;5095727;28;20082;-84
2021/07/15 01:17:18;;;;;;;19.13;9.85;;;;;;;21.73;61.01;101504.91;5101931;28;20031;-85
2021/07/15 01:20:26;;;;;;;18.90;10.18;;;;;;;21.72;60.87;101503.19;5099762;28;20066;-85
2021/07/15 01:23:29;;;;;;;18.42;9.48;;;;;;;21.72;60.87;101504.03;5047641;28;20040;-85
2021/07/15 01:26:25;;;;;;;14.38;8.80;;;;;;;21.70;61.03;101512.81;5091973;28;20070;-85
2021/07/15 01:29:21;;;;;;;17.02;9.68;;;;;;;21.70;60.92;101515.44;5092480;28;20028;-84
2021/07/15 01:31:51;;;;;;;16.48;9.57;;;;;;;21.71;61.00;101509.28;5092261;28;20046;-85
2021/07/15 01:34:19;;;;;;;15.38;9.38;;;;;;;21.71;60.86;101515.41;5093454;28;20471;-84
2021/07/15 01:36:49;;;;;;;16.58;8.98;;;;;;;21.69;61.05;101521.59;5092018;28;20059;-84
2021/07/15 01:39:16;;;;;;;16.70;9.98;;;;;;;21.71;60.82;101525.00;5092111;28;20054;-85
2021/07/15 01:41:46;;;;;;;14.93;9.23;;;;;;;21.70;61.02;101518.06;5078761;28;20029;-84
2021/07/15 01:44:17;;;;;;;16.83;9.43;;;;;;;21.70;60.69;101518.91;5096773;28;20059;-85
2021/07/15 01:46:43;;;;;;;15.50;9.40;;;;;;;21.70;60.75;101513.69;5095569;28;20119;-84
2021/07/15 01:49:10;;;;;;;14.32;9.93;;;;;;;21.68;60.89;101518.06;5095249;28;20386;-85
2021/07/15 01:51:36;;;;;;;15.30;9.90;;;;;;;21.63;60.97;101519.06;5095458;28;20085;-85
2021/07/15 01:54:03;;;;;;;16.65;9.73;;;;;;;21.68;61.20;101525.06;5079341;28;20032;-85
2021/07/15 01:56:30;;;;;;;16.27;9.65;;;;;;;21.69;60.85;101517.19;5079069;28;20035;-86
2021/07/15 01:58:58;;;;;;;12.23;8.90;;;;;;;21.67;60.86;101512.88;5096500;28;20024;-86
2021/07/15 02:01:26;;;;;;;14.07;8.50;;;;;;;21.66;61.07;101516.38;5095058;28;20020;-82
2021/07/15 02:03:56;;;;;;;15.48;9.30;;;;;;;21.68;60.56;101514.59;5078488;28;20031;-85
2021/07/15 02:06:23;;;;;;;13.80;9.07;;;;;;;21.70;60.96;101510.19;5094854;28;20140;-85
2021/07/15 02:08:52;;;;;;;14.73;9.20;;;;;;;21.72;60.78;101516.28;5078219;28;20045;-84
2021/07/15 02:11:20;;;;;;;16.15;8.90;;;;;;;21.69;60.93;101517.19;5095116;28;20020;-85
2021/07/15 02:13:48;;;;;;;13.93;9.30;;;;;;;21.71;60.74;101501.44;5095035;28;20516;-85
2021/07/15 02:16:15;;;;;;;18.85;9.45;;;;;;;21.71;60.83;101511.91;5096310;28;20035;-85
2021/07/15 02:18:42;;;;;;;15.50;9.20;;;;;;;21.67;60.99;101505.03;5077910;28;20482;-85
2021/07/15 02:21:08;;;;;;;15.93;9.65;;;;;;;21.64;61.02;101498.06;5094395;28;20028;-85
2021/07/15 02:23:34;;;;;;;18.42;9.55;;;;;;;21.67;60.92;101498.03;5078003;28;20065;-84
2021/07/15 02:26:00;;;;;;;14.55;8.63;;;;;;;21.69;60.85;101496.25;5094440;28;20484;-86
2021/07/15 02:28:27;;;;;;;14.23;8.45;;;;;;;21.72;60.88;101500.56;5096000;28;20035;-85
2021/07/15 02:30:58;;;;;;;14.25;8.90;;;;;;;21.71;60.83;101501.44;5095916;28;20074;-84
2021/07/15 02:33:27;;;;;;;15.57;8.73;;;;;;;21.70;60.75;101504.97;5094541;28;20032;-85
2021/07/15 02:35:56;;;;;;;14.30;8.85;;;;;;;21.68;60.89;101504.13;5094489;28;20441;-85
2021/07/15 02:38:23;;;;;;;16.58;9.38;;;;;;;21.65;61.01;101502.41;5095771;28;20077;-86
2021/07/15 02:40:52;;;;;;;13.35;8.90;;;;;;;21.65;61.00;101489.31;5096026;28;20087;-86
2021/07/15 02:43:17;;;;;;;12.77;8.55;;;;;;;21.63;61.03;101490.25;5098525;28;20024;-85
2021/07/15 02:45:43;;;;;;;15.73;8.45;;;;;;;21.65;60.91;101478.00;5095594;28;20020;-84
2021/07/15 02:48:11;;;;;;;15.20;8.23;;;;;;;21.65;60.85;101484.09;5077671;28;20024;-84
2021/07/15 02:50:37;;;;;;;15.10;8.95;;;;;;;21.65;60.69;101488.47;5094075;28;20162;-84
2021/07/15 02:53:02;;;;;;;11.60;8.20;;;;;;;21.65;60.83;101480.59;5077667;28;20036;-85
2021/07/15 02:55:28;;;;;;;16.67;8.98;;;;;;;21.65;60.83;101483.22;5077599;28;20470;-85
2021/07/15 02:58:08;;;;;;;14.48;8.68;;;;;;;21.65;60.98;101485.84;5077455;28;20430;-85
2021/07/15 03:00:44;;;;;;;16.20;8.43;;;;;;;21.66;60.99;101496.28;5094306;28;20046;-86
2021/07/15 03:03:25;;;;;;;13.50;8.52;;;;;;;21.70;60.79;101481.38;5094514;28;20024;-85
2021/07/15 03:06:08;;;;;;;12.80;8.57;;;;;;;21.65;60.89;101476.22;5094191;28;20024;-86
2021/07/15 03:08:38;;;;;;;14.68;7.90;;;;;;;21.69;60.58;101482.28;5095686;28;20099;-84
2021/07/15 03:11:07;;;;;;;20.52;8.43;;;;;;;21.64;60.69;101490.19;5095573;28;20018;-84
2021/07/15 03:13:33;;;;;;;14.27;8.60;;;;;;;21.62;60.86;101491.97;5094343;28;20020;-84
2021/07/15 03:16:00;;;;;;;14.48;8.30;;;;;;;21.62;60.93;101494.59;5094138;28;20196;-84
2021/07/15 03:18:27;;;;;;;15.25;8.73;;;;;;;21.63;60.67;101492.88;5094238;28;20024;-85
2021/07/15 03:20:56;;;;;;;15.70;9.32;;;;;;;21.61;60.83;101498.13;5094184;28;20028;-85
2021/07/15 03:23:25;;;;;;;16.50;8.45;;;;;;;21.61;60.89;101502.50;5105631;28;20024;-87
2021/07/15 03:25:57;;;;;;;16.73;8.52;;;;;;;21.62;60.82;101496.34;5094505;28;20123;-84
2021/07/15 03:28:28;;;;;;;16.30;8.35;;;;;;;21.60;60.74;101504.25;5096665;28;20024;-85
2021/07/15 03:30:57;;;;;;;13.10;8.23;;;;;;;21.64;60.64;101512.91;5097454;28;20012;-84
2021/07/15 03:33:24;;;;;;;14.15;7.78;;;;;;;21.62;60.60;101499.81;5096569;28;20031;-84
2021/07/15 03:35:50;;;;;;;18.63;8.48;;;;;;;21.62;60.64;101498.97;5096207;28;20024;-84
2021/07/15 03:38:16;;;;;;;17.45;8.13;;;;;;;21.57;60.61;101499.03;5078682;28;20038;-85
2021/07/15 03:40:43;;;;;;;15.13;7.93;;;;;;;21.60;60.62;101496.41;5078263;28;20024;-84
2021/07/15 03:43:12;;;;;;;12.63;7.20;;;;;;;21.60;60.53;101498.13;5095512;28;20069;-84
2021/07/15 03:45:38;;;;;;;16.35;7.07;;;;;;;21.64;60.51;101502.44;5093718;28;20027;-84
2021/07/15 03:48:04;;;;;;;13.27;7.43;;;;;;;21.59;60.76;101505.13;5076745;28;20030;-83
2021/07/15 03:50:32;;;;;;;14.23;7.40;;;;;;;21.59;60.26;101506.88;5077314;28;20107;-84
2021/07/15 03:53:02;;;;;;;17.20;7.20;;;;;;;21.61;60.54;101492.88;5095166;28;20055;-84
2021/07/15 03:55:30;;;;;;;13.63;7.30;;;;;;;21.64;60.27;101512.91;5096567;28;20024;-85
2021/07/15 03:57:57;;;;;;;12.07;7.00;;;;;;;21.67;60.46;101512.88;5093634;28;20053;-84
2021/07/15 04:00:25;;;;;;;13.95;6.88;;;;;;;21.66;60.40;101514.59;5094763;28;20028;-84
2021/07/15 04:03:00;;;;;;;14.88;7.60;;;;;;;21.66;60.11;101519.84;5100947;28;20027;-84
2021/07/15 04:05:28;;;;;;;14.35;7.70;;;;;;;21.63;60.38;101517.28;5098781;28;20024;-84
2021/07/15 04:07:55;;;;;;;13.85;7.10;;;;;;;21.64;60.21;101524.25;5094731;28;20067;-85
2021/07/15 04:10:22;;;;;;;18.35;7.43;;;;;;;21.63;60.26;101521.66;5077131;28;20471;-84
2021/07/15 04:12:51;;;;;;;15.73;7.18;;;;;;;21.65;60.35;101531.22;5093860;28;20039;-84
2021/07/15 04:15:26;;;;;;;13.70;6.47;;;;;;;21.64;60.18;101518.16;5095155;28;20028;-84
2021/07/15 04:17:59;;;;;;;14.43;7.28;;;;;;;21.66;60.04;101526.84;5094760;28;20027;-84
2021/07/15 04:20:25;;;;;;;;;;;;;;;21.64;60.26;101531.25;5093681;28;20032;-84
2021/07/15 04:22:54;;;;;;;14.82;7.18;;;;;;;21.62;60.12;101533.03;5092771;28;19920;-84
2021/07/15 04:25:22;;;;;;;10.07;6.20;;;;;;;21.64;60.05;101531.25;5076141;28;20478;-84
2021/07/15 04:27:52;;;;;;;14.45;7.10;;;;;;;21.65;60.09;101525.13;5092863;28;20055;-84
2021/07/15 04:30:18;;;;;;;15.10;6.85;;;;;;;21.63;60.13;101533.00;5092688;28;20097;-84
2021/07/15 04:33:03;;;;;;;14.75;6.88;;;;;;;21.64;60.20;101536.47;5093267;28;20032;-84
2021/07/15 04:35:31;;;;;;;15.98;6.85;;;;;;;21.63;60.19;101534.78;5094725;28;20024;-84
2021/07/15 04:37:57;;;;;;;15.35;6.55;;;;;;;21.62;60.04;101533.03;5093127;28;20073;-87
2021/07/15 04:40:24;;;;;;;16.75;7.35;;;;;;;21.65;60.20;101543.47;5075925;28;20028;-87
2021/07/15 04:42:52;;;;;;;15.27;6.38;;;;;;;21.62;59.92;101549.59;5077355;28;20039;-83
2021/07/15 04:45:23;;;;;;;14.75;7.18;;;;;;;21.63;59.99;101548.72;5076133;28;20055;-84
2021/07/15 04:47:48;;;;;;;15.05;7.15;;;;;;;21.62;59.83;101538.25;5076817;28;20032;-84
2021/07/15 04:50:16;;;;;;;20.42;7.30;;;;;;;21.61;59.98;101539.16;5093320;28;20024;-84
2021/07/15 04:52:43;;;;;;;17.25;7.40;;;;;;;21.62;59.77;101544.34;5076033;28;20029;-85
2021/07/15 04:55:11;;;;;;;15.80;6.07;;;;;;;21.66;59.71;101538.19;5093744;28;20082;-85
2021/07/15 04:57:38;;;;;;;15.05;6.20;;;;;;;21.65;59.58;101531.22;5092404;28;20030;-85
2021/07/15 05:00:10;;;;;;;18.23;6.82;;;;;;;21.60;59.72;101545.28;5075766;28;20386;-87
2021/07/15 05:02:39;;;;;;;16.08;6.70;;;;;;;21.62;59.68;101549.59;5094007;28;20032;-87
2021/07/15 05:05:10;;;;;;;16.23;6.20;;;;;;;21.62;59.36;101556.59;5092309;28;20028;-86
2021/07/15 05:07:36;;;;;;;14.95;6.32;;;;;;;21.61;59.60;101547.88;5093680;28;20055;-80
2021/07/15 05:10:07;;;;;;;14.93;6.30;;;;;;;21.64;59.34;101552.19;5093758;28;20081;-79
2021/07/15 05:12:33;;;;;;;16.50;6.22;;;;;;;21.61;59.40;101550.50;5075853;28;20078;-89
2021/07/15 05:15:01;;;;;;;13.32;6.00;;;;;;;21.63;59.41;101553.09;5079690;28;20359;-89
2021/07/15 05:17:26;;;;;;;18.33;6.57;;;;;;;21.64;59.42;101539.09;5099821;28;20024;-92
2021/07/15 05:19:51;;;;;;;18.33;7.63;;;;;;;21.66;59.71;101556.53;5082036;28;20127;-92
2021/07/15 05:22:17;;;;;;;14.52;6.95;;;;;;;21.68;59.83;101549.50;5081883;28;20054;-93
2021/07/15 05:24:43;;;;;;;17.02;7.25;;;;;;;21.66;59.68;101560.91;5065403;28;20036;-89
2021/07/15 05:27:09;;;;;;;16.40;6.80;;;;;;;21.63;59.58;101548.72;5081571;28;20406;-88
2021/07/15 05:29:34;;;;;;;16.90;7.32;;;;;;;21.64;59.71;101549.59;5097491;28;20389;-93
2021/07/15 05:32:01;;;;;;;18.25;7.43;;;;;;;21.65;59.54;101560.03;5064920;28;20020;-92
2021/07/15 05:34:27;;;;;;;17.60;7.25;;;;;;;21.65;59.48;101564.44;5065489;28;20035;-94
2021/07/15 05:36:52;;;;;;;19.77;7.45;;;;;;;21.64;59.34;101571.38;5083796;28;20381;-92
2021/07/15 05:39:18;;;;;;;19.23;7.07;;;;;;;21.61;59.38;101571.44;5082408;28;20028;-93
2021/07/15 05:41:43;;;;;;;19.60;7.60;;;;;;;21.60;59.34;101561.00;5065157;28;20028;-92
2021/07/15 05:44:08;;;;;;;18.67;7.80;;;;;;;21.56;59.16;101557.56;5082052;28;20027;-92
2021/07/15 05:46:34;;;;;;;17.55;7.70;;;;;;;21.56;59.35;101561.03;5065320;28;20398;-93
2021/07/15 05:48:59;;;;;;;19.33;7.22;;;;;;;21.62;59.19;101561.84;5066667;28;20036;-93
2021/07/15 05:51:25;;;;;;;17.88;7.57;;;;;;;21.64;58.90;101575.78;5098661;28;20032;-92
2021/07/15 05:53:50;;;;;;;16.80;7.20;;;;;;;21.65;58.71;101572.28;5117703;28;20024;-93
2021/07/15 05:56:16;;;;;;;15.63;6.78;;;;;;;21.66;58.61;101577.47;5103386;28;20020;-93
2021/07/15 05:58:41;;;;;;;14.52;6.90;;;;;;;21.71;58.64;101573.06;5103295;28;20054;-93
2021/07/15 06:01:07;;;;;;;19.05;7.32;;;;;;;21.72;58.75;101577.38;5091164;28;20028;-94
2021/07/15 06:03:32;;;;;;;21.13;7.20;;;;;;;21.73;58.78;101586.09;5072945;28;20032;-93
2021/07/15 06:05:57;;;;;;;20.55;7.20;;;;;;;21.74;58.61;101586.09;5103353;28;20085;-94
2021/07/15 06:08:23;;;;;;;18.33;6.68;;;;;;;21.77;58.35;101591.31;5086282;28;20020;-93
2021/07/15 06:10:48;;;;;;;18.05;6.80;;;;;;;21.77;58.31;101591.31;5085171;28;20028;-94
2021/07/15 06:13:14;;;;;;;17.42;6.85;;;;;;;21.73;58.44;101599.19;5085989;28;20096;-93
2021/07/15 06:15:40;;;;;;;18.15;6.80;;;;;;;21.72;58.41;101598.34;5102412;28;20130;-94
2021/07/15 06:18:06;;;;;;;19.77;7.00;;;;;;;21.69;58.30;101597.53;5100779;28;20028;-94
2021/07/15 06:20:32;;;;;;;17.65;7.05;;;;;;;21.62;58.35;101607.22;5101440;28;20031;-93
2021/07/15 06:22:57;;;;;;;22.38;7.65;;;;;;;21.56;58.64;101604.72;5101315;28;20117;-93
2021/07/15 06:25:23;;;;;;;15.32;6.53;;;;;;;21.56;58.67;101597.72;5101025;28;20062;-93
2021/07/15 06:27:48;;;;;;;21.65;7.00;;;;;;;21.61;58.47;101602.88;5113485;28;20055;-93
2021/07/15 06:30:14;;;;;;;21.13;7.50;;;;;;;21.65;58.16;101614.19;5091425;28;20032;-91
2021/07/15 06:32:40;;;;;;;18.63;7.40;;;;;;;21.67;58.36;101599.31;5108634;28;20062;-95
2021/07/15 06:35:07;;;;;;;18.58;7.65;;;;;;;21.69;58.16;101608.03;5115837;28;20004;-91
2021/07/15 06:37:36;;;;;;;22.50;7.72;;;;;;;21.69;57.97;101611.50;5117107;28;20024;-94
2021/07/15 06:40:07;;;;;;;18.90;7.85;;;;;;;21.64;58.15;101613.31;5110978;28;20016;-92
2021/07/15 06:42:33;;;;;;;18.80;7.55;;;;;;;21.64;58.16;101622.91;5104933;28;20035;-93
2021/07/15 06:44:58;;;;;;;19.10;7.85;;;;;;;21.60;57.83;101621.22;5089588;28;20028;-89
2021/07/15 06:47:24;;;;;;;20.58;7.57;;;;;;;21.59;57.79;101629.97;5093520;28;20032;-90
2021/07/15 06:49:49;;;;;;;27.55;7.40;;;;;;;21.54;57.71;101630.06;5093667;28;20028;-88
2021/07/15 06:52:15;;;;;;;24.23;7.68;;;;;;;21.61;57.47;101613.34;5099895;28;20027;-85
2021/07/15 06:54:40;;;;;;;16.13;6.78;;;;;;;21.71;57.78;101621.94;5079484;28;20382;-89
2021/07/15 06:57:06;;;;;;;17.92;6.80;;;;;;;21.68;57.66;101620.22;5098796;28;20020;-89
2021/07/15 06:59:31;;;;;;;17.80;7.15;;;;;;;21.71;57.54;101609.72;5072392;28;20458;-89
2021/07/15 07:01:57;;;;;;;16.55;6.55;;;;;;;21.88;57.09;101621.69;5076395;28;20421;-89
2021/07/15 07:04:22;;;;;;;13.68;6.65;;;;;;;21.98;56.46;101628.53;5083514;28;20028;-84
2021/07/15 07:06:47;;;;;;;18.27;6.38;;;;;;;21.98;56.71;101629.41;5078589;28;20067;-89
2021/07/15 07:09:13;;;;;;;16.42;6.40;;;;;;;21.95;57.01;101620.72;5063106;28;20028;-88
2021/07/15 07:11:39;;;;;;;12.82;6.40;;;;;;;21.95;56.74;101620.72;5080861;28;20024;-89
2021/07/15 07:14:04;;;;;;;19.88;6.88;;;;;;;21.81;57.19;101625.31;5078077;28;20036;-89
2021/07/15 07:16:30;;;;;;;20.80;6.82;;;;;;;21.56;57.42;101637.00;5061837;28;20032;-89
2021/07/15 07:18:55;;;;;;;21.30;6.97;;;;;;;21.51;57.77;101640.56;5064891;28;20100;-89
2021/07/15 07:21:21;;;;;;;19.98;7.28;;;;;;;21.41;58.27;101650.28;5064865;28;20435;-89
2021/07/15 07:23:47;;;;;;;23.35;7.78;;;;;;;21.34;58.18;101651.22;5096291;28;20110;-88
2021/07/15 07:26:12;;;;;;;21.13;7.75;;;;;;;21.30;58.07;101645.16;5078706;28;20052;-88
2021/07/15 07:28:38;;;;;;;17.85;6.95;;;;;;;21.22;58.36;101656.59;5094948;28;20058;-89
2021/07/15 07:31:03;;;;;;;20.45;7.00;;;;;;;21.19;58.12;101660.13;5061873;28;20043;-88
2021/07/15 07:33:28;;;;;;;17.80;6.80;;;;;;;21.33;57.88;101659.97;5061848;28;20063;-87
2021/07/15 07:35:54;;;;;;;18.25;7.40;;;;;;;21.39;57.49;101669.50;5078435;28;20035;-89
2021/07/15 07:38:20;;;;;;;17.50;6.63;;;;;;;21.33;57.51;101675.66;5093960;28;20019;-88
2021/07/15 07:40:45;;;;;;;20.77;7.78;;;;;;;21.26;57.69;101676.63;5094664;28;20119;-88
2021/07/15 07:43:11;;;;;;;19.60;6.60;;;;;;;21.27;57.78;101675.72;5094285;28;20347;-89
2021/07/15 07:45:36;;;;;;;18.42;6.55;;;;;;;21.25;57.72;101673.16;5077126;28;20031;-89
2021/07/15 07:48:02;;;;;;;21.10;7.07;;;;;;;21.35;57.54;101674.75;5062937;28;20032;-88
2021/07/15 07:50:27;;;;;;;18.85;7.25;;;;;;;21.29;57.71;101672.19;5100497;28;20051;-88
2021/07/15 07:52:55;;;;;;;18.40;6.90;;;;;;;21.45;57.29;101672.94;5078168;28;20052;-88
2021/07/15 07:55:21;;;;;;;18.60;6.80;;;;;;;21.42;57.49;101669.47;5097437;28;20024;-89
2021/07/15 07:57:46;;;;;;;20.63;7.35;;;;;;;21.40;57.54;101679.06;5097768;28;20027;-89
2021/07/15 08:00:14;;;;;;;22.63;6.82;;;;;;;21.54;56.88;101664.97;5097904;28;20038;-88
2021/07/15 08:02:42;;;;;;;17.38;6.90;;;;;;;21.69;56.60;101671.75;5097475;28;20039;-88
2021/07/15 08:05:09;;;;;;;14.20;6.78;;;;;;;21.67;56.34;101667.44;5079614;28;20073;-88
2021/07/15 08:07:34;;;;;;;15.73;7.22;;;;;;;21.64;56.44;101668.31;5060435;28;20032;-88
2021/07/15 08:10:01;;;;;;;20.55;6.80;;;;;;;21.62;56.62;101670.06;5094421;28;20103;-88
2021/07/15 08:12:27;;;;;;;19.33;7.10;;;;;;;21.76;56.21;101676.00;5093555;28;20366;-89
2021/07/15 08:14:52;;;;;;;18.95;7.13;;;;;;;21.69;56.64;101673.50;5093753;28;20028;-89
2021/07/15 08:17:18;;;;;;;20.13;6.65;;;;;;;21.73;56.55;101677.78;5093416;28;20031;-88
2021/07/15 08:19:43;;;;;;;17.88;6.63;;;;;;;21.90;56.16;101688.91;5077005;28;20036;-90
2021/07/15 08:22:09;;;;;;;15.63;6.72;;;;;;;21.80;56.38;101689.06;5059914;28;20035;-89
2021/07/15 08:24:34;;;;;;;18.30;7.00;;;;;;;21.57;56.82;101704.19;5076677;28;20525;-88
2021/07/15 08:27:00;;;;;;;18.17;7.00;;;;;;;21.81;55.78;101701.28;5059705;28;20056;-86
2021/07/15 08:29:35;;;;;;;20.10;6.88;;;;;;;21.76;56.17;101691.72;5094489;28;20032;-90
2021/07/15 08:32:00;;;;;;;13.30;6.50;;;;;;;21.97;55.37;101702.78;5077904;28;20059;-89
2021/07/15 08:34:27;;;;;;;17.90;6.95;;;;;;;21.93;55.05;101703.75;5093726;28;20024;-89
2021/07/15 08:36:52;;;;;;;16.63;6.38;;;;;;;21.85;55.74;101701.22;5094404;28;20411;-89
2021/07/15 08:39:18;;;;;;;15.63;7.00;;;;;;;21.73;55.95;101701.38;5096386;28;20035;-90
2021/07/15 08:41:45;;;;;;;19.13;7.22;;;;;;;21.73;56.41;101701.38;5077764;28;20098;-89
2021/07/15 08:44:13;;;;;;;16.88;7.18;;;;;;;21.72;56.31;101711.00;5077609;28;20039;-89
2021/07/15 08:46:43;;;;;;;13.75;7.00;;;;;;;21.79;56.25;101714.41;5078240;28;20031;-90
2021/07/15 08:49:11;;;;;;;21.05;8.10;;;;;;;21.87;55.51;101702.06;5095784;28;20032;-89
2021/07/15 08:51:37;;;;;;;21.05;7.15;;;;;;;21.77;56.03;101711.81;5100543;28;20478;-89
2021/07/15 08:54:04;;;;;;;16.85;6.93;;;;;;;21.76;56.01;101707.44;5100476;28;20024;-93
2021/07/15 08:56:37;;;;;;;17.42;6.78;;;;;;;21.86;56.08;101720.41;5084099;28;20466;-93
2021/07/15 08:59:08;;;;;;;19.63;7.65;;;;;;;21.74;56.15;101724.94;5101751;28;20055;-92
2021/07/15 09:01:34;;;;;;;16.35;6.85;;;;;;;21.72;56.19;101718.84;5103888;28;20073;-93
2021/07/15 09:04:01;;;;;;;18.35;7.32;;;;;;;21.68;56.46;101735.50;5084765;28;20032;-93
2021/07/15 09:06:27;;;;;;;17.08;7.15;;;;;;;21.63;56.46;101734.69;5069413;28;20031;-91
2021/07/15 09:08:54;;;;;;;23.08;8.07;;;;;;;21.59;56.58;101742.59;5100630;28;20031;-91
2021/07/15 09:11:20;;;;;;;14.80;7.20;;;;;;;21.59;56.50;101733.00;5083540;28;20482;-93
2021/07/15 09:13:46;;;;;;;15.27;6.72;;;;;;;21.56;56.21;101726.03;5099605;28;20054;-88
2021/07/15 09:16:13;;;;;;;19.75;7.28;;;;;;;21.61;56.12;101732.97;5081743;28;20028;-89
2021/07/15 09:18:58;;;;;;;18.10;6.80;;;;;;;21.64;55.87;101732.94;5099605;28;20069;-90
2021/07/15 09:21:26;;;;;;;19.30;7.65;;;;;;;21.65;56.17;101739.91;5097911;28;20135;-90
2021/07/15 09:23:51;;;;;;;18.17;7.53;;;;;;;21.69;56.29;101742.47;5098293;28;20023;-89
2021/07/15 09:26:17;;;;;;;17.13;7.20;;;;;;;21.68;56.43;101743.34;5063931;28;20371;-89
2021/07/15 09:28:42;;;;;;;19.98;7.63;;;;;;;21.64;56.32;101751.28;5098676;28;20040;-90
2021/07/15 09:31:19;;;;;;;17.70;7.50;;;;;;;21.67;56.67;101759.09;5063293;28;20032;-91
2021/07/15 09:33:46;;;;;;;14.93;7.00;;;;;;;21.65;56.43;101753.03;5100042;28;20523;-91
2021/07/15 09:36:16;;;;;;;15.65;7.38;;;;;;;21.61;56.86;101754.78;5083228;28;20081;-91
2021/07/15 09:38:43;;;;;;;21.23;7.80;;;;;;;21.61;56.43;101761.78;5100531;28;20032;-91
2021/07/15 09:41:08;;;;;;;19.45;7.68;;;;;;;21.54;56.98;101755.75;5082436;28;20073;-90
2021/07/15 09:43:39;;;;;;;17.05;7.75;;;;;;;21.50;56.94;101762.78;5081073;28;20025;-91
2021/07/15 09:46:11;;;;;;;21.75;7.28;;;;;;;21.48;56.98;101763.69;5098347;28;20032;-88
2021/07/15 09:48:36;;;;;;;18.13;7.68;;;;;;;21.52;57.02;101766.25;5096466;28;20020;-92
2021/07/15 09:51:02;;;;;;;17.70;7.70;;;;;;;21.51;56.81;101761.03;5063382;28;20028;-93
2021/07/15 09:53:29;;;;;;;19.15;7.40;;;;;;;;;;5096374;28;20055;-90
2021/07/15 09:56:05;;;;;;;19.92;7.53;;;;;;;21.47;56.65;101775.91;5078741;28;20072;-90
2021/07/15 09:58:41;;;;;;;19.45;7.30;;;;;;;21.62;56.45;101774.00;5097185;28;20057;-92
2021/07/15 10:01:21;;;;;;;16.50;7.50;;;;;;;21.66;56.21;101765.22;5096816;28;20032;-89
2021/07/15 10:03:49;;;;;;;19.00;7.60;;;;;;;21.67;56.57;101762.59;5097941;28;20016;-90
2021/07/15 10:06:16;;;;;;;22.42;8.10;;;;;;;21.72;56.26;101770.38;5099946;28;20081;-91
2021/07/15 10:08:44;;;;;;;21.65;7.78;;;;;;;21.72;56.38;101773.00;5095751;28;20028;-91
2021/07/15 10:11:29;;;;;;;21.48;7.82;;;;;;;21.67;56.30;101770.44;5079053;28;20020;-93
2021/07/15 10:14:06;;;;;;;18.52;7.82;;;;;;;21.72;56.15;101773.00;5079325;28;20062;-92
2021/07/15 10:16:45;;;;;;;14.98;7.32;;;;;;;21.74;56.39;101772.09;5096124;28;20543;-91
2021/07/15 10:19:22;;;;;;;20.40;7.88;;;;;;;21.68;56.41;101776.53;5095757;28;20034;-92
2021/07/15 10:22:07;;;;;;;21.23;7.63;;;;;;;21.73;56.59;101777.34;5095979;28;20035;-91
2021/07/15 10:24:32;;;;;;;23.65;8.18;;;;;;;21.78;56.56;101773.78;5078909;28;20035;-91
2021/07/15 10:27:05;;;;;;;16.17;7.53;;;;;;;21.76;56.86;101772.94;5078704;28;20056;-92
2021/07/15 10:29:31;;;;;;;18.80;7.53;;;;;;;21.78;56.70;101767.69;5095720;28;20031;-91
2021/07/15 10:31:57;;;;;;;14.55;7.22;;;;;;;21.76;56.56;101769.47;5095477;28;20262;-93
2021/07/15 10:34:24;;;;;;;21.30;7.93;;;;;;;21.78;56.42;101770.31;5079630;28;20020;-92
2021/07/15 10:36:55;;;;;;;14.43;7.25;;;;;;;21.78;56.87;101775.56;5100143;28;20105;-92
2021/07/15 10:39:23;;;;;;;22.42;8.10;;;;;;;21.82;56.45;101773.75;5097541;28;20054;-91
2021/07/15 10:41:55;;;;;;;18.60;7.60;;;;;;;21.83;56.87;101765.88;5078930;28;20119;-90
2021/07/15 10:44:21;;;;;;;19.42;7.43;;;;;;;21.82;56.61;101763.25;5095364;28;20024;-90
2021/07/15 10:46:47;;;;;;;17.80;7.72;;;;;;;21.83;56.88;101771.13;5079246;28;20032;-90
2021/07/15 10:49:13;;;;;;;20.42;7.45;;;;;;;21.79;57.28;101772.03;5095235;28;20036;-93
2021/07/15 10:51:42;;;;;;;17.08;7.82;;;;;;;21.89;56.70;101775.44;5078155;28;20532;-91
2021/07/15 10:54:08;;;;;;;17.42;7.68;;;;;;;21.96;56.43;101772.69;5094942;28;20028;-91
2021/07/15 10:56:35;;;;;;;16.30;7.53;;;;;;;21.95;56.37;101776.22;5077799;28;20035;-94
2021/07/15 10:59:01;;;;;;;18.73;7.45;;;;;;;22.03;56.30;101777.84;5078091;28;20028;-92
2021/07/15 11:01:42;;;;;;;14.48;7.13;;;;;;;22.07;56.18;101780.41;5077776;28;20128;-85
2021/07/15 11:04:22;;;;;;;16.27;7.53;;;;;;;22.07;56.18;101779.56;5094544;28;20024;-87
2021/07/15 11:06:49;;;;;;;16.23;7.38;;;;;;;22.13;56.23;101787.34;5096452;28;20027;-93
2021/07/15 11:09:28;;;;;;;19.63;7.57;;;;;;;22.14;56.04;101782.06;5096306;28;20024;-94
2021/07/15 11:11:53;;;;;;;20.90;8.43;;;;;;;22.23;55.69;101786.34;5097129;28;20022;-93
2021/07/15 11:14:40;;;;;;;18.58;7.78;;;;;;;22.24;55.80;101781.97;5079675;28;20115;-93
2021/07/15 11:17:20;;;;;;;23.23;7.35;;;;;;;22.24;55.74;101785.47;5096029;28;20077;-94
2021/07/15 11:20:08;;;;;;;18.90;8.23;;;;;;;22.17;55.61;101789.03;5096687;28;20032;-93
2021/07/15 11:22:54;;;;;;;16.70;7.30;;;;;;;22.21;55.58;101793.34;5097300;28;20101;-93